createdAt,value
2023-01-04T00:00:20.546Z,7.11
2023-01-04T00:01:24.204Z,7.10
2023-01-04T00:02:28.859Z,7.10
2023-01-04T00:03:33.770Z,7.09
2023-01-04T00:04:37.712Z,7.09
2023-01-04T00:05:41.533Z,7.05
2023-01-04T00:06:48.593Z,7.03
2023-01-04T00:07:52.297Z,7.02
2023-01-04T00:08:56.468Z,7.00
2023-01-04T00:10:00.454Z,6.98
2023-01-04T00:11:13.461Z,6.98
2023-01-04T00:12:18.149Z,6.97
2023-01-04T00:13:22.081Z,6.93
2023-01-04T00:14:25.880Z,6.93
2023-01-04T00:15:29.712Z,6.90
2023-01-04T00:16:33.421Z,6.89
2023-01-04T00:17:37.040Z,6.89
2023-01-04T00:18:42.791Z,6.88
2023-01-04T00:19:46.537Z,6.87
2023-01-04T00:20:50.689Z,6.86
2023-01-04T00:21:54.486Z,6.86
2023-01-04T00:22:59.047Z,6.84
2023-01-04T00:24:02.971Z,6.84
2023-01-04T00:25:16.830Z,6.84
2023-01-04T00:26:33.107Z,6.82
2023-01-04T00:27:38.761Z,6.82
2023-01-04T00:28:48.413Z,6.80
2023-01-04T00:29:58.634Z,6.79
2023-01-04T00:31:08.285Z,6.78
2023-01-04T00:32:19.151Z,6.76
2023-01-04T00:33:23.743Z,6.76
2023-01-04T00:34:31.248Z,6.76
2023-01-04T00:35:45.928Z,6.74
2023-01-04T00:36:49.946Z,6.73
2023-01-04T00:37:53.547Z,6.73
2023-01-04T00:39:14.500Z,6.69
2023-01-04T00:40:18.215Z,6.64
2023-01-04T00:41:56.855Z,6.60
2023-01-04T00:42:45.473Z,6.56
2023-01-04T00:43:48.990Z,6.55
2023-01-04T00:44:52.642Z,6.55
2023-01-04T00:45:57.327Z,6.53
2023-01-04T00:47:02.944Z,6.52
2023-01-04T00:48:13.171Z,6.50
2023-01-04T00:49:17.276Z,6.44
2023-01-04T00:50:20.745Z,6.44
2023-01-04T00:51:24.284Z,6.42
2023-01-04T00:52:27.812Z,6.41
2023-01-04T00:53:31.540Z,6.40
2023-01-04T00:54:35.581Z,6.39
2023-01-04T00:55:39.385Z,6.36
2023-01-04T00:56:44.306Z,6.35
2023-01-04T00:57:47.799Z,6.31
2023-01-04T00:58:59.587Z,6.29
2023-01-04T01:00:05.158Z,6.26
2023-01-04T01:01:15.023Z,6.25
2023-01-04T01:02:18.673Z,6.24
2023-01-04T01:03:22.981Z,6.22
2023-01-04T01:04:27.917Z,6.21
2023-01-04T01:05:35.643Z,6.21
2023-01-04T01:06:40.425Z,6.21
2023-01-04T01:07:43.865Z,6.20
2023-01-04T01:08:47.740Z,6.19
2023-01-04T01:09:51.465Z,6.18
2023-01-04T01:10:55.470Z,6.17
2023-01-04T01:11:59.292Z,6.16
2023-01-04T01:13:02.816Z,6.14
2023-01-04T01:14:19.372Z,6.13
2023-01-04T01:15:23.290Z,6.10
2023-01-04T01:16:52.968Z,6.10
2023-01-04T01:17:50.820Z,6.06
2023-01-04T01:18:55.138Z,6.04
2023-01-04T01:19:58.706Z,6.04
2023-01-04T01:21:18.086Z,6.03
2023-01-04T01:22:21.679Z,6.01
2023-01-04T01:23:25.252Z,6.00
2023-01-04T01:24:29.091Z,5.96
2023-01-04T01:25:34.601Z,5.97
2023-01-04T01:26:38.522Z,5.95
2023-01-04T01:27:43.268Z,5.94
2023-01-04T01:28:48.569Z,5.90
2023-01-04T01:29:53.794Z,5.89
2023-01-04T01:31:05.145Z,5.89
2023-01-04T01:32:14.700Z,5.86
2023-01-04T01:33:21.710Z,5.85
2023-01-04T01:34:25.537Z,5.85
2023-01-04T01:35:29.520Z,5.84
2023-01-04T01:36:33.947Z,5.84
2023-01-04T01:37:37.875Z,5.78
2023-01-04T01:38:42.302Z,5.79
2023-01-04T01:39:47.278Z,5.78
2023-01-04T01:40:51.601Z,5.78
2023-01-04T01:41:56.020Z,5.75
2023-01-04T01:43:00.531Z,5.73
2023-01-04T01:44:43.254Z,5.72
2023-01-04T01:46:00.325Z,5.69
2023-01-04T01:47:04.621Z,5.67
2023-01-04T01:48:30.859Z,5.65
2023-01-04T01:49:38.730Z,5.65
2023-01-04T01:51:00.211Z,5.63
2023-01-04T01:52:16.820Z,5.61
2023-01-04T01:53:21.684Z,5.59
2023-01-04T01:54:37.123Z,5.57
2023-01-04T01:55:45.121Z,5.56
2023-01-04T01:56:53.611Z,5.57
2023-01-04T01:57:58.846Z,5.53
2023-01-04T01:59:05.527Z,5.53
2023-01-04T02:00:19.663Z,5.52
2023-01-04T02:01:23.576Z,5.51
2023-01-04T02:02:28.075Z,5.49
2023-01-04T02:03:43.103Z,5.44
2023-01-04T02:04:52.187Z,5.46
2023-01-04T02:06:04.654Z,5.46
2023-01-04T02:07:19.919Z,5.45
2023-01-04T02:08:26.254Z,5.42
2023-01-04T02:09:32.681Z,5.41
2023-01-04T02:10:37.013Z,5.42
2023-01-04T02:11:40.958Z,5.38
2023-01-04T02:12:46.817Z,5.40
2023-01-04T02:14:11.537Z,5.41
2023-01-04T02:15:17.408Z,5.40
2023-01-04T02:16:51.319Z,5.37
2023-01-04T02:18:28.748Z,5.36
2023-01-04T02:20:38.236Z,5.30
2023-01-04T02:22:31.775Z,5.31
2023-01-04T02:24:12.424Z,5.33
2023-01-04T02:26:18.426Z,5.33
2023-01-04T02:27:55.503Z,5.32
2023-01-04T02:29:55.510Z,5.39
2023-01-04T02:31:38.460Z,5.40
2023-01-04T02:33:46.519Z,5.40
2023-01-04T02:35:28.320Z,5.43
2023-01-04T02:37:13.440Z,5.44
2023-01-04T02:38:52.343Z,5.46
2023-01-04T02:40:27.673Z,5.48
2023-01-04T02:41:54.941Z,5.47
2023-01-04T02:43:28.575Z,5.50
2023-01-04T02:44:54.200Z,5.52
2023-01-04T02:46:17.504Z,5.50
2023-01-04T02:47:56.153Z,5.53
2023-01-04T02:49:22.560Z,5.51
2023-01-04T02:50:36.374Z,5.51
2023-01-04T02:51:40.392Z,5.48
2023-01-04T02:52:44.471Z,5.47
2023-01-04T02:53:48.146Z,5.48
2023-01-04T02:54:57.878Z,5.48
2023-01-04T02:56:36.179Z,5.49
2023-01-04T02:58:18.519Z,5.46
2023-01-04T02:59:44.909Z,5.46
2023-01-04T03:01:46.936Z,5.45
2023-01-04T03:03:43.081Z,5.40
2023-01-04T03:05:40.742Z,5.38
2023-01-04T03:07:35.351Z,5.33
2023-01-04T03:09:01.034Z,5.28
2023-01-04T03:10:31.405Z,5.23
2023-01-04T03:12:32.774Z,5.21
2023-01-04T03:13:46.019Z,5.18
2023-01-04T03:15:18.382Z,5.15
2023-01-04T03:16:26.772Z,5.14
2023-01-04T03:17:42.834Z,5.12
2023-01-04T03:18:53.939Z,5.11
2023-01-04T03:20:00.535Z,5.10
2023-01-04T03:21:14.496Z,5.11
2023-01-04T03:22:54.053Z,5.08
2023-01-04T03:24:19.714Z,5.05
2023-01-04T03:25:50.181Z,5.04
2023-01-04T03:27:27.901Z,4.99
2023-01-04T03:28:57.999Z,4.96
2023-01-04T03:30:32.864Z,4.96
2023-01-04T03:32:35.199Z,4.95
2023-01-04T03:33:57.709Z,4.94
2023-01-04T03:35:21.220Z,4.92
2023-01-04T03:36:58.017Z,4.93
2023-01-04T03:38:24.442Z,4.91
2023-01-04T03:40:35.247Z,4.90
2023-01-04T03:42:13.295Z,4.86
2023-01-04T03:43:56.299Z,4.85
2023-01-04T03:45:33.912Z,4.84
2023-01-04T03:47:14.266Z,4.83
2023-01-04T03:49:14.561Z,4.81
2023-01-04T03:50:31.904Z,4.78
2023-01-04T03:51:38.892Z,4.78
2023-01-04T03:52:46.475Z,4.77
2023-01-04T03:53:56.741Z,4.79
2023-01-04T03:55:03.720Z,4.79
2023-01-04T03:56:17.529Z,4.77
2023-01-04T03:57:23.676Z,4.78
2023-01-04T03:58:28.836Z,4.77
2023-01-04T03:59:42.617Z,4.77
2023-01-04T04:00:50.487Z,4.75
2023-01-04T04:01:54.956Z,4.76
2023-01-04T04:03:17.880Z,4.73
2023-01-04T04:04:42.763Z,4.74
2023-01-04T04:06:09.032Z,4.71
2023-01-04T04:07:33.162Z,4.70
2023-01-04T04:08:37.804Z,4.67
2023-01-04T04:09:42.374Z,4.67
2023-01-04T04:10:45.824Z,4.65
2023-01-04T04:11:51.007Z,4.66
2023-01-04T04:12:55.026Z,4.63
2023-01-04T04:14:00.723Z,4.64
2023-01-04T04:15:05.432Z,4.64
2023-01-04T04:16:13.568Z,4.63
2023-01-04T04:17:19.096Z,4.61
2023-01-04T04:18:23.147Z,4.62
2023-01-04T04:19:27.029Z,4.60
2023-01-04T04:20:31.319Z,4.55
2023-01-04T04:21:34.938Z,4.55
2023-01-04T04:22:41.126Z,4.55
2023-01-04T04:23:57.691Z,4.53
2023-01-04T04:25:21.612Z,4.52
2023-01-04T04:26:25.156Z,4.50
2023-01-04T04:27:29.444Z,4.50
2023-01-04T04:28:34.407Z,4.49
2023-01-04T04:29:38.304Z,4.47
2023-01-04T04:30:43.768Z,4.44
2023-01-04T04:31:47.976Z,4.45
2023-01-04T04:32:52.088Z,4.43
2023-01-04T04:33:55.914Z,4.40
2023-01-04T04:35:00.100Z,4.38
2023-01-04T04:36:04.874Z,4.38
2023-01-04T04:37:14.753Z,4.39
2023-01-04T04:38:18.978Z,4.38
2023-01-04T04:39:22.944Z,4.38
2023-01-04T04:40:45.940Z,4.38
2023-01-04T04:41:49.679Z,4.36
2023-01-04T04:42:53.412Z,4.37
2023-01-04T04:43:58.234Z,4.36
2023-01-04T04:45:02.399Z,4.35
2023-01-04T04:46:12.292Z,4.36
2023-01-04T04:47:19.635Z,4.33
2023-01-04T04:48:23.563Z,4.35
2023-01-04T04:49:27.237Z,4.34
2023-01-04T04:50:30.921Z,4.35
2023-01-04T04:51:35.326Z,4.33
2023-01-04T04:52:41.900Z,4.34
2023-01-04T04:53:46.774Z,4.31
2023-01-04T04:54:51.097Z,4.29
2023-01-04T04:55:55.555Z,4.29
2023-01-04T04:57:00.012Z,4.31
2023-01-04T04:58:12.801Z,4.29
2023-01-04T04:59:22.382Z,4.27
2023-01-04T05:00:26.019Z,4.29
2023-01-04T05:01:31.151Z,4.28
2023-01-04T05:02:36.253Z,4.24
2023-01-04T05:03:40.721Z,4.27
2023-01-04T05:04:45.492Z,4.24
2023-01-04T05:05:49.597Z,4.23
2023-01-04T05:06:53.191Z,4.24
2023-01-04T05:07:57.308Z,4.23
2023-01-04T05:09:01.165Z,4.21
2023-01-04T05:10:07.084Z,4.20
2023-01-04T05:11:16.411Z,4.17
2023-01-04T05:12:39.071Z,4.14
2023-01-04T05:13:43.362Z,4.11
2023-01-04T05:14:47.553Z,4.11
2023-01-04T05:15:54.864Z,4.10
2023-01-04T05:16:59.209Z,4.09
2023-01-04T05:18:03.561Z,4.10
2023-01-04T05:19:15.142Z,4.10
2023-01-04T05:20:19.015Z,4.11
2023-01-04T05:21:22.929Z,4.10
2023-01-04T05:22:26.741Z,4.08
2023-01-04T05:23:30.539Z,4.07
2023-01-04T05:24:34.381Z,4.06
2023-01-04T05:25:39.547Z,4.09
2023-01-04T05:26:43.323Z,4.08
2023-01-04T05:27:46.976Z,4.08
2023-01-04T05:28:53.852Z,4.07
2023-01-04T05:30:16.514Z,4.08
2023-01-04T05:31:20.527Z,4.06
2023-01-04T05:32:25.221Z,4.08
2023-01-04T05:33:32.777Z,4.06
2023-01-04T05:34:36.456Z,4.05
2023-01-04T05:35:40.398Z,4.04
2023-01-04T05:36:45.064Z,4.02
2023-01-04T05:37:48.923Z,4.02
2023-01-04T05:38:53.265Z,4.00
2023-01-04T05:39:57.095Z,4.00
2023-01-04T05:41:01.822Z,4.01
2023-01-04T05:42:26.362Z,4.00
2023-01-04T05:43:29.877Z,3.93
2023-01-04T05:44:33.557Z,3.95
2023-01-04T05:45:38.073Z,3.98
2023-01-04T05:46:48.109Z,3.98
2023-01-04T05:47:55.339Z,3.93
2023-01-04T05:48:59.965Z,3.97
2023-01-04T05:50:07.044Z,3.95
2023-01-04T05:51:19.363Z,3.95
2023-01-04T05:52:22.877Z,3.91
2023-01-04T05:53:26.689Z,3.86
2023-01-04T05:54:30.540Z,3.88
2023-01-04T05:55:35.249Z,3.86
2023-01-04T05:56:39.607Z,3.86
2023-01-04T05:57:44.445Z,3.87
2023-01-04T05:58:49.427Z,3.76
2023-01-04T05:59:54.059Z,3.78
2023-01-04T06:00:58.312Z,3.84
2023-01-04T06:02:02.323Z,3.84
2023-01-04T06:03:07.822Z,3.84
2023-01-04T06:04:18.980Z,3.82
2023-01-04T06:05:26.248Z,3.88
2023-01-04T06:06:30.630Z,3.96
2023-01-04T06:07:35.072Z,3.99
2023-01-04T06:08:38.646Z,4.00
2023-01-04T06:09:44.330Z,4.01
2023-01-04T06:10:54.522Z,4.03
2023-01-04T06:11:58.240Z,4.05
2023-01-04T06:13:02.680Z,4.06
2023-01-04T06:14:35.566Z,4.00
2023-01-04T06:15:43.424Z,3.94
2023-01-04T06:16:47.437Z,3.99
2023-01-04T06:17:52.110Z,3.97
2023-01-04T06:18:56.147Z,3.96
2023-01-04T06:19:59.991Z,3.99
2023-01-04T06:21:04.375Z,3.99
2023-01-04T06:22:18.747Z,3.93
2023-01-04T06:23:23.590Z,3.92
2023-01-04T06:24:35.616Z,3.93
2023-01-04T06:25:39.512Z,3.91
2023-01-04T06:26:44.284Z,3.83
2023-01-04T06:27:53.209Z,3.85
2023-01-04T06:29:00.854Z,3.86
2023-01-04T06:30:06.906Z,3.87
2023-01-04T06:31:29.034Z,3.87
2023-01-04T06:32:34.275Z,3.83
2023-01-04T06:33:38.582Z,3.85
2023-01-04T06:34:42.297Z,3.85
2023-01-04T06:35:58.397Z,3.88
2023-01-04T06:37:03.734Z,3.83
2023-01-04T06:38:18.105Z,3.86
2023-01-04T06:39:23.298Z,3.84
2023-01-04T06:40:30.558Z,3.88
2023-01-04T06:41:37.190Z,3.88
2023-01-04T06:42:46.729Z,3.90
2023-01-04T06:43:51.616Z,3.86
2023-01-04T06:44:56.504Z,3.86
2023-01-04T06:46:08.361Z,3.88
2023-01-04T06:47:19.541Z,3.82
2023-01-04T06:48:24.534Z,3.87
2023-01-04T06:49:28.591Z,3.88
2023-01-04T06:50:32.412Z,3.89
2023-01-04T06:51:39.741Z,3.91
2023-01-04T06:52:43.391Z,3.91
2023-01-04T06:53:47.678Z,3.93
2023-01-04T06:54:51.824Z,3.91
2023-01-04T06:55:58.596Z,3.90
2023-01-04T06:57:06.316Z,3.92
2023-01-04T06:58:17.644Z,3.89
2023-01-04T06:59:30.406Z,3.93
2023-01-04T07:00:44.933Z,3.95
2023-01-04T07:01:52.326Z,3.91
2023-01-04T07:03:13.456Z,3.90
2023-01-04T07:04:28.397Z,3.88
2023-01-04T07:05:32.220Z,3.90
2023-01-04T07:06:37.119Z,3.90
2023-01-04T07:07:41.729Z,3.91
2023-01-04T07:08:45.278Z,3.86
2023-01-04T07:09:49.025Z,3.83
2023-01-04T07:10:54.014Z,3.78
2023-01-04T07:11:58.339Z,3.81
2023-01-04T07:13:02.166Z,3.82
2023-01-04T07:14:22.471Z,3.82
2023-01-04T07:15:38.951Z,3.81
2023-01-04T07:16:45.320Z,3.76
2023-01-04T07:17:50.448Z,3.78
2023-01-04T07:18:54.831Z,3.77
2023-01-04T07:19:59.116Z,3.75
2023-01-04T07:21:02.875Z,3.77
2023-01-04T07:22:12.093Z,3.77
2023-01-04T07:23:17.920Z,3.76
2023-01-04T07:24:29.581Z,3.77
2023-01-04T07:25:36.770Z,3.77
2023-01-04T07:26:41.503Z,3.77
2023-01-04T07:27:45.134Z,3.79
2023-01-04T07:29:08.029Z,3.80
2023-01-04T07:30:17.546Z,3.83
2023-01-04T07:31:21.864Z,3.84
2023-01-04T07:32:34.651Z,3.88
2023-01-04T07:33:52.175Z,3.88
2023-01-04T07:34:57.559Z,3.88
2023-01-04T07:36:09.156Z,3.93
2023-01-04T07:37:15.690Z,3.92
2023-01-04T07:38:20.242Z,3.94
2023-01-04T07:39:24.147Z,3.91
2023-01-04T07:40:28.139Z,3.80
2023-01-04T07:41:31.892Z,3.86
2023-01-04T07:42:36.316Z,3.87
2023-01-04T07:43:39.952Z,3.87
2023-01-04T07:44:44.797Z,3.90
2023-01-04T07:45:48.473Z,3.91
2023-01-04T07:46:52.240Z,3.97
2023-01-04T07:47:57.999Z,3.99
2023-01-04T07:49:01.873Z,4.01
2023-01-04T07:50:09.228Z,4.03
2023-01-04T07:51:17.566Z,3.99
2023-01-04T07:52:21.523Z,4.00
2023-01-04T07:53:25.227Z,4.01
2023-01-04T07:54:29.174Z,4.02
2023-01-04T07:55:32.859Z,4.06
2023-01-04T07:56:38.050Z,4.07
2023-01-04T07:57:42.275Z,4.06
2023-01-04T07:58:46.058Z,4.07
2023-01-04T07:59:49.736Z,4.08
2023-01-04T08:00:54.080Z,4.11
2023-01-04T08:01:57.802Z,4.11
2023-01-04T08:03:01.688Z,4.10
2023-01-04T08:04:09.412Z,4.13
2023-01-04T08:05:17.470Z,4.17
2023-01-04T08:06:30.169Z,4.18
2023-01-04T08:07:33.902Z,4.20
2023-01-04T08:08:37.598Z,4.24
2023-01-04T08:09:42.111Z,4.25
2023-01-04T08:11:12.843Z,4.28
2023-01-04T08:12:22.961Z,4.28
2023-01-04T08:13:27.534Z,4.33
2023-01-04T08:14:31.505Z,4.30
2023-01-04T08:15:37.473Z,4.39
2023-01-04T08:16:43.633Z,4.37
2023-01-04T08:17:47.718Z,4.38
2023-01-04T08:19:13.718Z,4.41
2023-01-04T08:20:17.919Z,4.40
2023-01-04T08:21:22.629Z,4.34
2023-01-04T08:22:26.327Z,4.40
2023-01-04T08:23:30.171Z,4.38
2023-01-04T08:24:33.934Z,4.39
2023-01-04T08:25:37.660Z,4.40
2023-01-04T08:26:42.310Z,4.45
2023-01-04T08:27:46.487Z,4.52
2023-01-04T08:28:51.594Z,4.52
2023-01-04T08:29:55.260Z,4.54
2023-01-04T08:30:59.780Z,4.58
2023-01-04T08:32:04.687Z,4.65
2023-01-04T08:33:17.204Z,4.69
2023-01-04T08:34:32.269Z,4.69
2023-01-04T08:35:35.893Z,4.78
2023-01-04T08:36:53.536Z,4.84
2023-01-04T08:38:18.841Z,4.93
2023-01-04T08:39:22.148Z,4.96
2023-01-04T08:40:25.748Z,4.95
2023-01-04T08:42:19.428Z,5.02
2023-01-04T08:43:19.029Z,5.10
2023-01-04T08:44:25.777Z,5.16
2023-01-04T08:45:30.393Z,5.22
2023-01-04T08:46:33.979Z,5.23
2023-01-04T08:47:38.036Z,5.24
2023-01-04T08:48:42.842Z,5.32
2023-01-04T08:49:46.531Z,5.35
2023-01-04T08:50:50.528Z,5.37
2023-01-04T08:51:54.673Z,5.39
2023-01-04T08:52:58.653Z,5.37
2023-01-04T08:54:02.461Z,5.34
2023-01-04T08:55:22.962Z,5.35
2023-01-04T08:56:27.439Z,5.33
2023-01-04T08:57:31.227Z,5.30
2023-01-04T08:58:37.880Z,5.26
2023-01-04T08:59:41.555Z,5.24
2023-01-04T09:00:48.044Z,5.21
2023-01-04T09:01:51.923Z,5.22
2023-01-04T09:02:56.233Z,5.20
2023-01-04T09:04:01.052Z,5.20
2023-01-04T09:05:06.016Z,5.20
2023-01-04T09:06:15.927Z,5.17
2023-01-04T09:07:19.619Z,5.19
2023-01-04T09:08:23.637Z,5.18
2023-01-04T09:09:30.706Z,5.17
2023-01-04T09:10:38.462Z,5.17
2023-01-04T09:11:41.971Z,5.18
2023-01-04T09:12:48.030Z,5.12
2023-01-04T09:14:04.569Z,5.13
2023-01-04T09:15:14.873Z,5.16
2023-01-04T09:16:20.577Z,5.16
2023-01-04T09:17:24.555Z,5.12
2023-01-04T09:18:32.737Z,5.16
2023-01-04T09:19:36.663Z,5.17
2023-01-04T09:20:40.295Z,5.21
2023-01-04T09:21:43.812Z,5.26
2023-01-04T09:22:48.316Z,5.33
2023-01-04T09:23:52.173Z,5.42
2023-01-04T09:24:55.747Z,5.50
2023-01-04T09:26:02.126Z,5.59
2023-01-04T09:27:12.350Z,5.72
2023-01-04T09:28:16.046Z,5.85
2023-01-04T09:29:20.146Z,5.95
2023-01-04T09:30:24.350Z,6.09
2023-01-04T09:31:29.363Z,6.21
2023-01-04T09:32:32.917Z,6.33
2023-01-04T09:34:12.148Z,6.45
2023-01-04T09:35:00.180Z,6.60
2023-01-04T09:36:12.892Z,6.72
2023-01-04T09:37:20.165Z,6.84
2023-01-04T09:38:24.378Z,6.95
2023-01-04T09:39:33.321Z,7.08
2023-01-04T09:41:01.546Z,7.28
2023-01-04T09:42:40.546Z,7.40
2023-01-04T09:44:20.533Z,7.55
2023-01-04T09:45:28.177Z,7.60
2023-01-04T09:46:43.424Z,7.70
2023-01-04T09:48:14.287Z,7.77
2023-01-04T09:49:57.554Z,7.88
2023-01-04T09:51:18.177Z,7.93
2023-01-04T09:53:00.579Z,8.03
2023-01-04T09:54:20.820Z,8.07
2023-01-04T09:55:43.120Z,8.13
2023-01-04T09:56:59.788Z,8.18
2023-01-04T09:58:20.474Z,8.24
2023-01-04T09:59:32.394Z,8.30
2023-01-04T10:00:45.522Z,8.36
2023-01-04T10:02:15.530Z,8.34
2023-01-04T10:03:40.226Z,8.37
2023-01-04T10:04:50.031Z,8.40
2023-01-04T10:05:57.240Z,8.42
2023-01-04T10:07:05.188Z,8.41
2023-01-04T10:08:20.289Z,8.44
2023-01-04T10:09:23.963Z,8.44
2023-01-04T10:10:55.605Z,8.37
2023-01-04T10:12:23.963Z,8.44
2023-01-04T10:13:48.865Z,8.43
2023-01-04T10:15:21.120Z,8.44
2023-01-04T10:17:01.825Z,8.49
2023-01-04T10:21:37.979Z,8.46
2023-01-04T10:23:13.326Z,8.47
2023-01-04T10:24:49.704Z,8.45
2023-01-04T10:26:16.447Z,8.47
2023-01-04T10:27:42.311Z,8.46
2023-01-04T10:29:29.213Z,8.53
2023-01-04T10:30:55.375Z,8.56
2023-01-04T10:32:15.879Z,8.57
2023-01-04T10:33:49.726Z,8.55
2023-01-04T10:34:54.520Z,8.52
2023-01-04T10:35:59.019Z,8.51
2023-01-04T10:37:36.063Z,8.48
2023-01-04T10:38:41.093Z,8.54
2023-01-04T10:39:46.566Z,8.59
2023-01-04T10:40:51.015Z,8.55
2023-01-04T10:42:09.946Z,8.56
2023-01-04T10:44:11.557Z,8.61
2023-01-04T10:45:39.190Z,8.62
2023-01-04T10:47:25.868Z,8.63
2023-01-04T10:48:49.172Z,8.71
2023-01-04T10:50:05.229Z,8.78
2023-01-04T10:51:21.346Z,8.83
2023-01-04T10:53:18.841Z,8.83
2023-01-04T10:54:56.743Z,8.88
2023-01-04T10:56:39.004Z,8.92
2023-01-04T10:58:00.862Z,8.90
2023-01-04T10:59:22.250Z,8.91
2023-01-04T11:00:52.667Z,8.95
2023-01-04T11:02:11.855Z,9.00
2023-01-04T11:03:52.323Z,8.99
2023-01-04T11:05:39.679Z,9.03
2023-01-04T11:07:17.773Z,9.07
2023-01-04T11:08:30.150Z,9.13
2023-01-04T11:09:50.759Z,9.14
2023-01-04T11:11:26.112Z,9.13
2023-01-04T11:12:33.716Z,9.13
2023-01-04T11:13:38.840Z,9.15
2023-01-04T11:14:42.713Z,9.23
2023-01-04T11:15:48.187Z,9.23
2023-01-04T11:17:05.347Z,9.20
2023-01-04T11:18:16.346Z,9.28
2023-01-04T11:19:20.001Z,9.29
2023-01-04T11:20:26.818Z,9.33
2023-01-04T11:21:41.981Z,9.36
2023-01-04T11:23:09.808Z,9.27
2023-01-04T11:24:33.288Z,9.36
2023-01-04T11:26:14.173Z,9.32
2023-01-04T11:27:27.179Z,9.34
2023-01-04T11:28:54.222Z,9.35
2023-01-04T11:30:19.795Z,9.39
2023-01-04T11:31:56.174Z,9.51
2023-01-04T11:33:20.188Z,9.56
2023-01-04T11:34:52.838Z,9.60
2023-01-04T11:35:59.706Z,9.58
2023-01-04T11:37:03.543Z,9.60
2023-01-04T11:38:22.499Z,9.61
2023-01-04T11:39:27.720Z,9.67
2023-01-04T11:40:32.186Z,9.75
2023-01-04T11:41:36.159Z,9.78
2023-01-04T11:42:40.179Z,9.81
2023-01-04T11:44:05.202Z,9.86
2023-01-04T11:45:27.913Z,9.93
2023-01-04T11:46:34.883Z,9.95
2023-01-04T11:47:50.486Z,10.04
2023-01-04T11:48:55.182Z,10.07
2023-01-04T11:49:59.394Z,10.08
2023-01-04T11:51:05.375Z,10.10
2023-01-04T11:52:46.084Z,10.12
2023-01-04T11:54:06.078Z,10.11
2023-01-04T11:55:33.219Z,10.11
2023-01-04T11:56:38.265Z,10.11
2023-01-04T11:57:43.218Z,10.07
2023-01-04T11:59:25.482Z,10.09
2023-01-04T12:00:29.773Z,10.15
2023-01-04T12:01:50.264Z,10.12
2023-01-04T12:03:25.393Z,10.16
2023-01-04T12:04:30.550Z,10.20
2023-01-04T12:05:39.400Z,10.19
2023-01-04T12:07:02.792Z,10.20
2023-01-04T12:08:26.441Z,10.25
2023-01-04T12:09:31.681Z,10.32
2023-01-04T12:10:35.402Z,10.30
2023-01-04T12:11:45.487Z,10.23
2023-01-04T12:12:49.549Z,10.25
2023-01-04T12:13:53.623Z,10.27
2023-01-04T12:15:04.050Z,10.28
2023-01-04T12:16:46.961Z,10.23
2023-01-04T12:17:57.950Z,10.25
2023-01-04T12:19:01.593Z,10.26
2023-01-04T12:20:20.603Z,10.22
2023-01-04T12:21:27.364Z,10.27
2023-01-04T12:22:39.811Z,10.33
2023-01-04T12:23:43.827Z,10.33
2023-01-04T12:24:48.217Z,10.37
2023-01-04T12:25:54.049Z,10.42
2023-01-04T12:26:59.215Z,10.46
2023-01-04T12:28:02.940Z,10.43
2023-01-04T12:29:24.488Z,10.46
2023-01-04T12:31:21.096Z,10.47
2023-01-04T12:32:25.660Z,10.43
2023-01-04T12:33:34.815Z,10.40
2023-01-04T12:34:41.603Z,10.40
2023-01-04T12:37:49.836Z,10.42
2023-01-04T12:38:56.499Z,10.47
2023-01-04T12:40:00.765Z,10.52
2023-01-04T12:41:04.947Z,10.56
2023-01-04T12:42:24.991Z,10.56
2023-01-04T12:43:44.752Z,10.54
2023-01-04T12:44:52.318Z,10.55
2023-01-04T12:46:49.826Z,10.57
2023-01-04T12:48:14.663Z,10.60
2023-01-04T12:49:30.464Z,10.58
2023-01-04T12:51:33.302Z,10.65
2023-01-04T12:53:30.872Z,10.65
2023-01-04T12:54:32.375Z,10.66
2023-01-04T12:55:43.852Z,10.56
2023-01-04T12:57:18.775Z,10.56
2023-01-04T12:59:14.939Z,10.59
2023-01-04T13:00:14.758Z,10.63
2023-01-04T13:01:30.603Z,10.64
2023-01-04T13:02:44.366Z,10.60
2023-01-04T13:03:48.879Z,10.56
2023-01-04T13:06:25.274Z,10.51
2023-01-04T13:07:42.282Z,10.52
2023-01-04T13:08:49.782Z,10.58
2023-01-04T13:10:02.961Z,10.58
2023-01-04T13:11:51.864Z,10.53
2023-01-04T13:13:13.377Z,10.49
2023-01-04T13:14:49.343Z,10.45
2023-01-04T13:16:28.869Z,10.52
2023-01-04T13:17:40.246Z,10.46
2023-01-04T13:18:53.144Z,10.47
2023-01-04T13:19:56.923Z,10.45
2023-01-04T13:21:13.014Z,10.46
2023-01-04T13:22:31.925Z,10.43
2023-01-04T13:23:36.063Z,10.43
2023-01-04T13:24:45.248Z,10.47
2023-01-04T13:25:48.688Z,10.50
2023-01-04T13:26:53.869Z,10.46
2023-01-04T13:28:04.357Z,10.46
2023-01-04T13:29:30.634Z,10.42
2023-01-04T13:30:39.809Z,10.37
2023-01-04T13:32:20.675Z,10.38
2023-01-04T13:33:27.368Z,10.35
2023-01-04T13:34:45.354Z,10.34
2023-01-04T13:36:13.472Z,10.30
2023-01-04T13:37:26.873Z,10.26
2023-01-04T13:38:34.846Z,10.20
2023-01-04T13:39:43.461Z,10.23
2023-01-04T13:40:49.580Z,10.17
2023-01-04T13:41:54.832Z,10.18
2023-01-04T13:43:16.247Z,10.18
2023-01-04T13:46:27.664Z,10.26
2023-01-04T13:47:37.141Z,10.25
2023-01-04T13:48:49.792Z,10.21
2023-01-04T13:49:54.082Z,10.24
2023-01-04T13:51:15.662Z,10.26
2023-01-04T13:53:58.383Z,10.32
2023-01-04T13:55:30.807Z,10.31
2023-01-04T13:56:35.392Z,10.26
2023-01-04T13:58:33.318Z,10.28
2023-01-04T13:59:38.178Z,10.26
2023-01-04T14:01:13.515Z,10.27
2023-01-04T14:02:22.196Z,10.31
2023-01-04T14:03:52.079Z,10.30
2023-01-04T14:04:56.202Z,10.29
2023-01-04T14:06:17.330Z,10.31
2023-01-04T14:07:26.046Z,10.28
2023-01-04T14:08:38.069Z,10.23
2023-01-04T14:09:56.928Z,10.17
2023-01-04T14:11:01.811Z,10.21
2023-01-04T14:12:19.923Z,10.17
2023-01-04T14:13:24.831Z,10.19
2023-01-04T14:15:03.340Z,10.23
2023-01-04T14:16:15.955Z,10.25
2023-01-04T14:17:54.987Z,10.25
2023-01-04T14:18:58.533Z,10.25
2023-01-04T14:20:16.088Z,10.19
2023-01-04T14:21:35.189Z,10.19
2023-01-04T14:22:45.862Z,10.19
2023-01-04T14:23:49.491Z,10.14
2023-01-04T14:25:15.040Z,10.11
2023-01-04T14:26:42.043Z,10.07
2023-01-04T14:27:45.950Z,10.09
2023-01-04T14:28:50.287Z,10.05
2023-01-04T14:29:53.948Z,10.05
2023-01-04T14:31:03.728Z,10.01
2023-01-04T14:32:12.119Z,10.03
2023-01-04T14:33:36.775Z,9.95
2023-01-04T14:34:40.643Z,9.92
2023-01-04T14:35:47.879Z,9.87
2023-01-04T14:37:04.699Z,9.93
2023-01-04T14:38:21.181Z,9.87
2023-01-04T14:39:32.830Z,9.83
2023-01-04T14:40:38.685Z,9.84
2023-01-04T14:41:53.576Z,9.85
2023-01-04T14:42:58.123Z,9.83
2023-01-04T14:44:01.765Z,9.80
2023-01-04T14:45:14.880Z,9.78
2023-01-04T14:46:18.465Z,9.79
2023-01-04T14:47:22.173Z,9.78
2023-01-04T14:48:25.850Z,9.82
2023-01-04T14:49:29.527Z,9.81
2023-01-04T14:50:33.299Z,9.77
2023-01-04T14:51:46.424Z,9.77
2023-01-04T14:52:54.570Z,9.77
2023-01-04T14:53:58.152Z,9.72
2023-01-04T14:55:05.058Z,9.76
2023-01-04T14:56:19.712Z,9.71
2023-01-04T14:57:23.375Z,9.76
2023-01-04T14:58:27.152Z,9.76
2023-01-04T14:59:30.653Z,9.73
2023-01-04T15:00:34.223Z,9.80
2023-01-04T15:01:39.292Z,9.79
2023-01-04T15:02:47.617Z,9.78
2023-01-04T15:04:00.500Z,9.80
2023-01-04T15:05:04.684Z,9.75
2023-01-04T15:06:10.691Z,9.71
2023-01-04T15:07:38.131Z,9.68
2023-01-04T15:08:42.013Z,9.66
2023-01-04T15:09:45.496Z,9.68
2023-01-04T15:10:54.557Z,9.71
2023-01-04T15:12:01.911Z,9.63
2023-01-04T15:13:13.066Z,9.62
2023-01-04T15:14:19.663Z,9.58
2023-01-04T15:15:23.616Z,9.60
2023-01-04T15:16:27.567Z,9.65
2023-01-04T15:17:31.664Z,9.67
2023-01-04T15:18:35.465Z,9.60
2023-01-04T15:19:41.359Z,9.62
2023-01-04T15:20:45.357Z,9.62
2023-01-04T15:21:49.347Z,9.56
2023-01-04T15:22:53.222Z,9.52
2023-01-04T15:23:56.671Z,9.52
2023-01-04T15:25:00.486Z,9.55
2023-01-04T15:26:14.185Z,9.61
2023-01-04T15:27:24.394Z,9.60
2023-01-04T15:28:30.697Z,9.65
2023-01-04T15:29:35.093Z,9.57
2023-01-04T15:30:43.494Z,9.61
2023-01-04T15:31:47.496Z,9.57
2023-01-04T15:32:51.218Z,9.55
2023-01-04T15:33:55.191Z,9.53
2023-01-04T15:34:58.650Z,9.56
2023-01-04T15:36:12.180Z,9.50
2023-01-04T15:37:21.981Z,9.48
2023-01-04T15:38:27.695Z,9.46
2023-01-04T15:39:31.487Z,9.42
2023-01-04T15:40:36.022Z,9.45
2023-01-04T15:41:58.744Z,9.46
2023-01-04T15:43:03.380Z,9.45
2023-01-04T15:44:13.253Z,9.47
2023-01-04T15:45:17.499Z,9.46
2023-01-04T15:46:21.242Z,9.38
2023-01-04T15:47:24.748Z,9.37
2023-01-04T15:48:28.396Z,9.41
2023-01-04T15:49:32.259Z,9.42
2023-01-04T15:50:39.941Z,9.39
2023-01-04T15:51:43.558Z,9.41
2023-01-04T15:52:47.013Z,9.45
2023-01-04T15:53:53.372Z,9.39
2023-01-04T15:54:57.390Z,9.40
2023-01-04T15:56:17.423Z,9.39
2023-01-04T15:57:21.396Z,9.35
2023-01-04T15:58:25.153Z,9.31
2023-01-04T15:59:29.732Z,9.30
2023-01-04T16:00:38.364Z,9.32
2023-01-04T16:01:43.700Z,9.35
2023-01-04T16:02:50.015Z,9.32
2023-01-04T16:03:54.497Z,9.30
2023-01-04T16:04:58.041Z,9.28
2023-01-04T16:06:15.053Z,9.26
2023-01-04T16:07:19.139Z,9.27
2023-01-04T16:08:22.625Z,9.30
2023-01-04T16:09:26.432Z,9.33